Amarant — CQSF — position and weather

sailwx.info

Track history (hours):
 
Tides and Currents Weather Stations Pressure Air Temp Water Temp Dewpoint Dewpoint Depression Visibility Wind Speed Wind Dir Waves Ship Positions

Amarant

Last reported at 2017-Jul-26 02:30 UTC. Time now 2017-Jul-26 02:42 UTC.
Position N 53°33' E 009°47'.

Length 119 m; draft 5.3 m.

Type: Tanker. MMSI: 255623000.

Date/timePositionNaut miles runAvg speedWind from/ knotsBaromVisibWave heightAir tempDewpointWater temp
2017-Jul-26 02:30N 53°33' E 009°47'4 8.9
2017-Jul-26 02:00N 53°34' E 009°39'612.3
2017-Jul-26 01:30N 53°38' E 009°31'511.0
2017-Jul-26 01:00N 53°43' E 009°28'510.4
2017-Jul-26 00:30N 53°48' E 009°23'611.7
2017-Jul-26 00:00N 53°52' E 009°16'5 9.9
2017-Jul-25 23:30N 53°53' E 009°08'4 8.5
2017-Jul-25 23:01N 53°51' E 009°01'5 9.0
2017-Jul-25 22:31N 53°50' E 008°54'5 9.3
2017-Jul-25 22:00N 53°51' E 008°46'5 9.3
2017-Jul-25 21:30N 53°54' E 008°41'611.5
2017-Jul-25 21:00N 53°58' E 008°33'612.8
2017-Jul-25 20:30N 53°59' E 008°23'612.2
2017-Jul-25 20:00N 53°60' E 008°12'713.4
2017-Jul-25 19:30N 53°58' E 008°01'13112.3
2017-Jul-25 08:52N 53°13' E 004°34'513.1
2017-Jul-25 08:27N 53°08' E 004°30'613.5
2017-Jul-25 08:00N 53°03' E 004°25'713.3
2017-Jul-25 07:30N 52°57' E 004°20'713.7
2017-Jul-25 07:00N 52°51' E 004°16'1413.9
2017-Jul-25 06:02N 52°41' E 004°01'114.2
2017-Jul-25 05:59N 52°41' E 003°60'4216.2
2017-Jul-25 03:25N 52°05' E 003°24'1114.2
2017-Jul-25 02:40N 51°54' E 003°22'0 0.0
2017-Jul-25 02:29N 51°54' E 003°22'5 9.5
2017-Jul-25 02:00N 51°50' E 003°19'714.5
2017-Jul-25 01:30N 51°43' E 003°16'4 8.9
2017-Jul-25 01:01N 51°40' E 003°20'713.2
2017-Jul-25 00:29N 51°33' E 003°25'612.3
2017-Jul-25 00:00N 51°28' E 003°31'612.2
2017-Jul-24 23:30N 51°25' E 003°39'612.5
2017-Jul-24 23:01N 51°22' E 003°47'611.9
2017-Jul-24 22:31N 51°23' E 003°56'4 8.7
2017-Jul-24 22:00N 51°25' E 004°02'510.8
2017-Jul-24 21:30N 51°24' E 004°10'611.4
2017-Jul-24 21:00N 51°19' E 004°16'3 6.8
2017-Jul-24 20:30N 51°17' E 004°20'0 0.0
2017-Jul-24 20:01N 51°17' E 004°20'1 1.1
2017-Jul-24 19:30N 51°16' E 004°20'2 3.3
2017-Jul-24 18:58N 51°15' E 004°23'0 0.0
2017-Jul-24 18:28N 51°15' E 004°23'0 0.0
2017-Jul-24 17:58N 51°15' E 004°23'0 0.0
2017-Jul-24 17:28N 51°15' E 004°23'0 0.0
2017-Jul-24 16:58N 51°15' E 004°23'0 0.0
2017-Jul-24 16:28N 51°15' E 004°23'0 0.0
2017-Jul-24 15:58N 51°15' E 004°23'0 0.0
2017-Jul-24 12:58N 51°15' E 004°23'0 0.0
2017-Jul-24 12:28N 51°15' E 004°23'0 0.0
2017-Jul-24 11:58N 51°15' E 004°23'0 0.0
2017-Jul-24 11:28N 51°15' E 004°23'0 0.0
2017-Jul-24 10:58N 51°15' E 004°23'0 0.0
2017-Jul-24 10:28N 51°15' E 004°23'0 0.0
2017-Jul-24 09:58N 51°15' E 004°23'0 0.0
2017-Jul-24 09:28N 51°15' E 004°23'0 0.0
2017-Jul-24 08:58N 51°15' E 004°23'0 0.0
2017-Jul-24 08:28N 51°15' E 004°23'0 0.0
2017-Jul-24 07:58N 51°15' E 004°23'0 0.0
2017-Jul-24 07:28N 51°15' E 004°23'0 0.0
2017-Jul-24 06:58N 51°15' E 004°23'0 0.0
2017-Jul-24 06:28N 51°15' E 004°23'0 0.0
2017-Jul-24 05:58N 51°15' E 004°23'0 0.0
2017-Jul-24 05:28N 51°15' E 004°23'0 0.0
2017-Jul-24 04:58N 51°15' E 004°23'0 0.0
2017-Jul-24 04:28N 51°15' E 004°23'0 0.0
2017-Jul-24 03:58N 51°15' E 004°23'0 0.0
2017-Jul-24 03:28N 51°15' E 004°23'0 0.0
2017-Jul-24 02:58N 51°15' E 004°23'0 0.0
2017-Jul-24 02:28N 51°15' E 004°23'0 0.0
2017-Jul-24 01:58N 51°15' E 004°23'0 0.0
2017-Jul-24 01:28N 51°15' E 004°23'0 0.0
2017-Jul-24 00:58N 51°15' E 004°23'0 0.0
2017-Jul-24 00:25N 51°15' E 004°23'0 0.0
2017-Jul-23 23:58N 51°15' E 004°23'0 0.0
2017-Jul-23 23:28N 51°15' E 004°23'0 0.0
2017-Jul-23 22:58N 51°15' E 004°23'0 0.0
2017-Jul-23 22:28N 51°15' E 004°23'0 0.0
2017-Jul-23 21:58N 51°15' E 004°23'0 0.0
2017-Jul-23 21:28N 51°15' E 004°23'0 0.0
2017-Jul-23 20:58N 51°15' E 004°23'0 0.0
2017-Jul-23 20:28N 51°15' E 004°23'0 0.0
2017-Jul-23 19:58N 51°15' E 004°23'0 0.0
2017-Jul-23 19:28N 51°15' E 004°23'0 0.0
2017-Jul-23 18:58N 51°15' E 004°23'0 0.0
2017-Jul-23 18:28N 51°15' E 004°23'0 0.0
2017-Jul-23 17:58N 51°15' E 004°23'0 0.0
2017-Jul-23 17:28N 51°15' E 004°23'0 0.0
2017-Jul-23 16:58N 51°15' E 004°23'0 0.0
2017-Jul-23 16:28N 51°15' E 004°23'0 0.0
2017-Jul-23 15:58N 51°15' E 004°23'0 0.0
2017-Jul-23 15:28N 51°15' E 004°23'0 0.0
2017-Jul-23 14:58N 51°15' E 004°23'0 0.0
2017-Jul-23 14:28N 51°15' E 004°23'0 0.0
2017-Jul-23 13:58N 51°15' E 004°23'0 0.0
2017-Jul-23 13:28N 51°15' E 004°23'0 0.0
2017-Jul-23 12:58N 51°15' E 004°23'0 0.0
2017-Jul-23 12:31N 51°15' E 004°23'0 0.0
2017-Jul-23 12:00N 51°15' E 004°23'0 0.0
2017-Jul-23 11:31N 51°15' E 004°23'0 0.0
2017-Jul-23 11:00N 51°15' E 004°23'0 0.0
2017-Jul-23 10:30N 51°15' E 004°23'0 0.0
2017-Jul-23 10:00N 51°15' E 004°23'0 0.0
2017-Jul-23 09:30N 51°15' E 004°23'0 0.0
2017-Jul-23 09:00N 51°15' E 004°23'0 0.0
2017-Jul-23 08:30N 51°15' E 004°23'0 0.0
2017-Jul-23 08:00N 51°15' E 004°23'0 0.0
2017-Jul-23 07:30N 51°15' E 004°23'0 0.0
2017-Jul-23 07:00N 51°15' E 004°23'0 0.0
2017-Jul-23 06:30N 51°15' E 004°23'0 0.0
2017-Jul-23 06:00N 51°15' E 004°23'0 0.0
2017-Jul-23 05:30N 51°15' E 004°23'0 0.0
2017-Jul-23 05:00N 51°15' E 004°23'0 0.0
2017-Jul-23 04:30N 51°15' E 004°23'0 0.0
2017-Jul-23 04:00N 51°15' E 004°23'0 0.0
2017-Jul-23 03:30N 51°15' E 004°23'0 0.0
2017-Jul-23 03:00N 51°15' E 004°23'0 0.0
2017-Jul-23 02:30N 51°15' E 004°23'0 0.0
2017-Jul-23 02:00N 51°15' E 004°23'0 0.0
2017-Jul-23 01:30N 51°15' E 004°23'0 0.0
2017-Jul-23 01:00N 51°15' E 004°23'0 0.1
2017-Jul-23 00:30N 51°15' E 004°23'0 0.3
2017-Jul-23 00:00N 51°15' E 004°22'0 0.0
2017-Jul-22 23:30N 51°15' E 004°22'0 0.0
2017-Jul-22 23:00N 51°15' E 004°22'0 0.0
2017-Jul-22 22:30N 51°15' E 004°22'0 0.0
2017-Jul-22 22:00N 51°15' E 004°22'0 0.0
2017-Jul-22 21:30N 51°15' E 004°22'0 0.0
2017-Jul-22 21:00N 51°15' E 004°22'0 0.0
2017-Jul-22 20:30N 51°15' E 004°22'0 0.0
2017-Jul-22 20:00N 51°15' E 004°22'0 0.0
2017-Jul-22 19:30N 51°15' E 004°22'0 0.0
2017-Jul-22 19:00N 51°15' E 004°22'0 0.0
2017-Jul-22 18:30N 51°15' E 004°22'0 0.0
2017-Jul-22 18:00N 51°15' E 004°22'0 0.0
2017-Jul-22 17:30N 51°15' E 004°22'0 0.0
2017-Jul-22 17:00N 51°15' E 004°22'0 0.0
2017-Jul-22 16:30N 51°15' E 004°22'0 0.0
2017-Jul-22 16:00N 51°15' E 004°22'0 0.0
2017-Jul-22 15:30N 51°15' E 004°22'0 0.0
2017-Jul-22 15:00N 51°15' E 004°22'0 0.0
2017-Jul-22 14:00N 51°15' E 004°22'0 0.0
2017-Jul-22 13:30N 51°15' E 004°22'0 0.0
2017-Jul-22 13:00N 51°15' E 004°22'0 0.0
2017-Jul-22 12:30N 51°15' E 004°22'0 0.0
2017-Jul-22 12:00N 51°15' E 004°22'0 0.0
2017-Jul-22 11:30N 51°15' E 004°22'0 0.0
2017-Jul-22 11:00N 51°15' E 004°22'0 0.0
2017-Jul-22 10:30N 51°15' E 004°22'0 0.0
2017-Jul-22 10:00N 51°15' E 004°22'0 0.0
2017-Jul-22 09:30N 51°15' E 004°22'0 0.0
2017-Jul-22 09:00N 51°15' E 004°22'0 0.0
2017-Jul-22 08:30N 51°15' E 004°22'0 0.0
2017-Jul-22 08:00N 51°15' E 004°22'0 0.0
2017-Jul-22 07:30N 51°15' E 004°22'0 0.0
2017-Jul-22 07:00N 51°15' E 004°22'0 0.0
2017-Jul-22 06:30N 51°15' E 004°22'0 0.0
2017-Jul-22 06:00N 51°15' E 004°22'0 0.0
2017-Jul-22 05:30N 51°15' E 004°22'0 0.0
2017-Jul-22 05:00N 51°15' E 004°22'0 0.0
2017-Jul-22 04:30N 51°15' E 004°22'0 0.0
2017-Jul-22 04:00N 51°15' E 004°22'0 0.0
2017-Jul-22 03:30N 51°15' E 004°22'0 0.0
2017-Jul-22 03:00N 51°15' E 004°22'0 0.0
2017-Jul-22 02:30N 51°15' E 004°22'0 0.0
2017-Jul-22 02:00N 51°15' E 004°22'0 0.0
2017-Jul-22 01:30N 51°15' E 004°22'0 0.0
2017-Jul-22 01:00N 51°15' E 004°22'0 0.0
2017-Jul-22 00:30N 51°15' E 004°22'0 0.0
2017-Jul-22 00:00N 51°15' E 004°22'0 0.0
2017-Jul-21 23:30N 51°15' E 004°22'0 0.0
2017-Jul-21 23:00N 51°15' E 004°22'0 0.0
2017-Jul-21 22:30N 51°15' E 004°22'0 0.0
2017-Jul-21 21:59N 51°15' E 004°22'0 0.0
2017-Jul-21 21:29N 51°15' E 004°22'0 0.0
2017-Jul-21 20:59N 51°15' E 004°22'0 0.0
2017-Jul-21 20:29N 51°15' E 004°22'0 0.0
2017-Jul-21 19:59N 51°15' E 004°22'0 0.0
2017-Jul-21 19:29N 51°15' E 004°22'0 0.0
2017-Jul-21 18:59N 51°15' E 004°22'0 0.0
2017-Jul-21 18:29N 51°15' E 004°22'0 0.0
2017-Jul-21 17:59N 51°15' E 004°22'0 0.0
2017-Jul-21 17:29N 51°15' E 004°22'0 0.0
2017-Jul-21 16:59N 51°15' E 004°22'0 0.0
2017-Jul-21 16:29N 51°15' E 004°22'0 0.0
2017-Jul-21 16:00N 51°15' E 004°22'1 2.9
2017-Jul-21 15:30N 51°16' E 004°21'1 1.5
2017-Jul-21 15:01N 51°17' E 004°20'0 0.5
2017-Jul-21 14:30N 51°17' E 004°20'2 3.5
2017-Jul-21 14:00N 51°18' E 004°17'4 7.9
2017-Jul-21 13:30N 51°21' E 004°14'4 8.1
2017-Jul-21 13:00N 51°22' E 004°08'510.5
2017-Jul-21 12:31N 51°26' E 004°01'611.4
2017-Jul-21 12:00N 51°22' E 003°54'612.7
2017-Jul-21 11:30N 51°22' E 003°44'611.7
2017-Jul-21 11:00N 51°26' E 003°37'510.1
2017-Jul-21 10:30N 51°29' E 003°30'612.8
2017-Jul-21 10:00N 51°34' E 003°25'1620.2
2017-Jul-21 09:13N 51°50' E 003°20'0 0.0
2017-Jul-21 09:00N 51°50' E 003°20'0 0.0
2017-Jul-21 08:30N 51°50' E 003°20'0 0.8
2017-Jul-21 08:00N 51°50' E 003°21'1 2.4
2017-Jul-21 07:30N 51°49' E 003°23'0 0.0
2017-Jul-21 07:00N 51°49' E 003°23'0 0.0
2017-Jul-21 06:30N 51°49' E 003°23'0 0.0
2017-Jul-21 06:00N 51°49' E 003°23'0 0.1
2017-Jul-21 03:26N 51°49' E 003°23'0 0.0
2017-Jul-21 02:52N 51°49' E 003°23'0 0.0
2017-Jul-21 02:30N 51°49' E 003°23'0 0.0
2017-Jul-21 02:00N 51°49' E 003°23'86 4.1
2017-Jul-20 05:02N 53°08' E 004°20'113.7
2017-Jul-20 04:57N 53°09' E 004°21'613.2
2017-Jul-20 04:30N 53°14' E 004°26'713.0
2017-Jul-20 03:59N 53°20' E 004°30'1811.2
2017-Jul-20 02:22N 53°32' E 004°53'412.0
2017-Jul-20 02:00N 53°34' E 004°60'11813.5
2017-Jul-19 17:13N 54°00' E 008°15'2 7.3
2017-Jul-19 16:58N 53°60' E 008°18'511.5
2017-Jul-19 16:29N 53°59' E 008°27'611.0
2017-Jul-19 15:58N 53°58' E 008°36'612.6
2017-Jul-19 15:29N 53°53' E 008°43'713.6
2017-Jul-19 15:00N 53°51' E 008°53'714.5
2017-Jul-19 14:30N 53°53' E 009°05'2 4.9
2017-Jul-19 14:00N 53°54' E 009°09'0 0.6
2017-Jul-19 13:30N 53°54' E 009°09'3 5.6
2017-Jul-19 13:00N 53°56' E 009°13'4 8.1
2017-Jul-19 12:30N 53°59' E 009°17'4 8.0
2017-Jul-19 12:00N 54°03' E 009°18'47 5.4
2017-Jul-19 03:16N 54°31' E 010°23'413.4
2017-Jul-19 03:00N 54°33' E 010°28'713.3
2017-Jul-19 02:31N 54°35' E 010°39'713.2
2017-Jul-19 02:01N 54°36' E 010°50'713.2
2017-Jul-19 01:31N 54°36' E 011°02'713.1
2017-Jul-19 01:01N 54°36' E 011°13'713.5
2017-Jul-19 00:31N 54°33' E 011°23'713.5
2017-Jul-19 00:01N 54°30' E 011°34'713.3
2017-Jul-18 23:27N 54°27' E 011°45'613.2
2017-Jul-18 23:01N 54°26' E 011°56'612.8
2017-Jul-18 22:31N 54°27' E 012°06'510.0
2017-Jul-18 22:01N 54°31' E 012°12'2213.0
2017-Jul-18 20:17N 54°47' E 012°39'2113.7
2017-Jul-18 18:43N 54°54' E 013°14'313.8
2017-Jul-18 18:28N 54°55' E 013°20'613.7
2017-Jul-18 18:00N 54°57' E 013°30'713.7
2017-Jul-18 17:30N 54°59' E 013°42'713.6
2017-Jul-18 17:00N 55°01' E 013°53'713.4
2017-Jul-18 16:30N 55°04' E 014°04'713.5
2017-Jul-18 15:59N 55°09' E 014°12'613.5
2017-Jul-18 15:30N 55°14' E 014°19'713.3
2017-Jul-18 15:00N 55°19' E 014°26'1313.1
2017-Jul-18 14:00N 55°29' E 014°42'612.7
2017-Jul-18 13:31N 55°32' E 014°52'612.6
2017-Jul-18 13:00N 55°35' E 015°02'612.9
2017-Jul-18 12:31N 55°39' E 015°11'612.8
2017-Jul-18 12:01N 55°42' E 015°21'612.9
2017-Jul-18 11:31N 55°45' E 015°31'613.0
2017-Jul-18 11:01N 55°48' E 015°41'612.9
2017-Jul-18 10:31N 55°52' E 015°51'612.9
2017-Jul-18 10:01N 55°55' E 016°01'612.4
2017-Jul-18 09:30N 55°58' E 016°10'613.0
2017-Jul-18 09:01N 56°05' E 016°11'713.0
2017-Jul-18 08:31N 56°11' E 016°12'713.3
2017-Jul-18 08:01N 56°18' E 016°14'713.5
2017-Jul-18 07:31N 56°25' E 016°15'713.4
2017-Jul-18 07:01N 56°31' E 016°18'611.9
2017-Jul-18 06:31N 56°37' E 016°21'3 5.2
2017-Jul-18 05:58N 56°39' E 016°23'0 0.0
2017-Jul-18 05:28N 56°39' E 016°23'0 0.0
2017-Jul-18 04:58N 56°39' E 016°23'0 0.0
2017-Jul-18 04:28N 56°39' E 016°23'0 0.0
2017-Jul-18 04:01N 56°39' E 016°23'0 0.0
2017-Jul-18 03:31N 56°39' E 016°23'0 0.0
2017-Jul-18 03:01N 56°39' E 016°23'0 0.0
2017-Jul-18 02:30N 56°39' E 016°23'0 0.0
2017-Jul-18 01:57N 56°39' E 016°23'0 0.0
2017-Jul-18 01:30N 56°39' E 016°23'0 0.0
2017-Jul-18 01:00N 56°39' E 016°23'0 0.0
2017-Jul-18 00:30N 56°39' E 016°23'0 0.0
2017-Jul-17 23:57N 56°39' E 016°23'0 0.0
2017-Jul-17 23:30N 56°39' E 016°23'0 0.0
2017-Jul-17 23:00N 56°39' E 016°23'0 0.0
2017-Jul-17 22:30N 56°39' E 016°23'0 0.0
2017-Jul-17 22:00N 56°39' E 016°23'0 0.0
2017-Jul-17 21:30N 56°39' E 016°23'0 0.0
2017-Jul-17 21:00N 56°39' E 016°23'0 0.0
2017-Jul-17 20:30N 56°39' E 016°23'0 0.0
2017-Jul-17 20:00N 56°39' E 016°23'0 0.0
2017-Jul-17 19:30N 56°39' E 016°23'0 0.0
2017-Jul-17 19:00N 56°39' E 016°23'0 0.0
2017-Jul-17 18:30N 56°39' E 016°23'0 0.0
2017-Jul-17 18:00N 56°39' E 016°23'0 0.0
2017-Jul-17 17:30N 56°39' E 016°23'0 0.0
2017-Jul-17 17:00N 56°39' E 016°23'0 0.0
2017-Jul-17 16:30N 56°39' E 016°23'0 0.0
2017-Jul-17 16:00N 56°39' E 016°23'0 0.0
2017-Jul-17 15:30N 56°39' E 016°23'0 0.0
2017-Jul-17 15:00N 56°39' E 016°23'0 0.0
2017-Jul-17 14:30N 56°39' E 016°23'0 0.0
2017-Jul-17 14:00N 56°39' E 016°23'0 0.0
2017-Jul-17 13:29N 56°39' E 016°23'0 0.0
2017-Jul-17 13:00N 56°39' E 016°23'0 0.0
2017-Jul-17 12:30N 56°39' E 016°23'0 0.0
2017-Jul-17 12:00N 56°39' E 016°23'0 0.0
2017-Jul-17 11:30N 56°39' E 016°23'0 0.0
2017-Jul-17 11:00N 56°39' E 016°23'0 0.0
2017-Jul-17 10:30N 56°39' E 016°23'0 0.4
2017-Jul-17 10:00N 56°40' E 016°23'3 6.7
2017-Jul-17 09:30N 56°43' E 016°26'2212.4
2017-Jul-17 07:42N 57°03' E 016°42'313.8
2017-Jul-17 07:28N 57°06' E 016°44'613.8
2017-Jul-17 07:00N 57°12' E 016°48'110 6.6
2017-Jul-16 14:31N 58°55' E 017°58'0 0.0
2017-Jul-16 14:14N 58°55' E 017°58'0 0.0
2017-Jul-16 13:56N 58°55' E 017°58'0 0.0
2017-Jul-16 13:30N 58°55' E 017°58'0 0.0
2017-Jul-16 12:56N 58°55' E 017°58'0 0.0
2017-Jul-16 12:15N 58°55' E 017°58'0 0.0
2017-Jul-16 11:58N 58°55' E 017°58'0 0.0
2017-Jul-16 11:29N 58°55' E 017°58'0 0.0
2017-Jul-16 10:56N 58°55' E 017°58'0 0.0
2017-Jul-16 10:28N 58°55' E 017°58'0 0.0
2017-Jul-16 09:55N 58°55' E 017°58'0 0.0
2017-Jul-16 09:27N 58°55' E 017°58'0 0.0
2017-Jul-16 08:59N 58°55' E 017°58'0 0.0
2017-Jul-16 08:30N 58°55' E 017°58'0 0.0
2017-Jul-16 07:55N 58°55' E 017°58'0 0.0
2017-Jul-16 07:21N 58°55' E 017°58'0 0.0
2017-Jul-16 06:57N 58°55' E 017°58'0 0.0
2017-Jul-16 06:28N 58°55' E 017°58'0 0.0
2017-Jul-16 05:55N 58°55' E 017°58'0 0.0
2017-Jul-16 05:30N 58°55' E 017°58'0 0.0
2017-Jul-16 04:48N 58°55' E 017°58'0 0.0
2017-Jul-16 04:09N 58°55' E 017°58'0 0.0
2017-Jul-16 03:57N 58°55' E 017°58'0 0.0
2017-Jul-16 03:24N 58°55' E 017°58'0 0.0
2017-Jul-16 02:58N 58°55' E 017°58'  
Track history (hours):
 
Tides and Currents Weather Stations Pressure Air Temp Water Temp Dewpoint Dewpoint Depression Visibility Wind Speed Wind Dir Waves Ship Positions

Amarant

Last reported at 2017-Jul-26 02:30 UTC. Time now 2017-Jul-26 02:42 UTC.
Position N 53°33' E 009°47'.

Length 119 m; draft 5.3 m.

Type: Tanker. MMSI: 255623000.

Date/timePositionNaut miles runAvg speedWind from/ knotsBaromVisibWave heightAir tempDewpointWater temp
2017-Jul-26 02:30N 53°33' E 009°47'4 8.9
2017-Jul-26 02:00N 53°34' E 009°39'612.3
2017-Jul-26 01:30N 53°38' E 009°31'511.0
2017-Jul-26 01:00N 53°43' E 009°28'510.4
2017-Jul-26 00:30N 53°48' E 009°23'611.7
2017-Jul-26 00:00N 53°52' E 009°16'5 9.9
2017-Jul-25 23:30N 53°53' E 009°08'4 8.5
2017-Jul-25 23:01N 53°51' E 009°01'5 9.0
2017-Jul-25 22:31N 53°50' E 008°54'5 9.3
2017-Jul-25 22:00N 53°51' E 008°46'5 9.3
2017-Jul-25 21:30N 53°54' E 008°41'611.5
2017-Jul-25 21:00N 53°58' E 008°33'612.8
2017-Jul-25 20:30N 53°59' E 008°23'612.2
2017-Jul-25 20:00N 53°60' E 008°12'713.4
2017-Jul-25 19:30N 53°58' E 008°01'13112.3
2017-Jul-25 08:52N 53°13' E 004°34'513.1
2017-Jul-25 08:27N 53°08' E 004°30'613.5
2017-Jul-25 08:00N 53°03' E 004°25'713.3
2017-Jul-25 07:30N 52°57' E 004°20'713.7
2017-Jul-25 07:00N 52°51' E 004°16'1413.9
2017-Jul-25 06:02N 52°41' E 004°01'114.2
2017-Jul-25 05:59N 52°41' E 003°60'4216.2
2017-Jul-25 03:25N 52°05' E 003°24'1114.2
2017-Jul-25 02:40N 51°54' E 003°22'0 0.0
2017-Jul-25 02:29N 51°54' E 003°22'5 9.5
2017-Jul-25 02:00N 51°50' E 003°19'714.5
2017-Jul-25 01:30N 51°43' E 003°16'4 8.9
2017-Jul-25 01:01N 51°40' E 003°20'713.2
2017-Jul-25 00:29N 51°33' E 003°25'612.3
2017-Jul-25 00:00N 51°28' E 003°31'612.2
2017-Jul-24 23:30N 51°25' E 003°39'612.5
2017-Jul-24 23:01N 51°22' E 003°47'611.9
2017-Jul-24 22:31N 51°23' E 003°56'4 8.7
2017-Jul-24 22:00N 51°25' E 004°02'510.8
2017-Jul-24 21:30N 51°24' E 004°10'611.4
2017-Jul-24 21:00N 51°19' E 004°16'3 6.8
2017-Jul-24 20:30N 51°17' E 004°20'0 0.0
2017-Jul-24 20:01N 51°17' E 004°20'1 1.1
2017-Jul-24 19:30N 51°16' E 004°20'2 3.3
2017-Jul-24 18:58N 51°15' E 004°23'0 0.0
2017-Jul-24 18:28N 51°15' E 004°23'0 0.0
2017-Jul-24 17:58N 51°15' E 004°23'0 0.0
2017-Jul-24 17:28N 51°15' E 004°23'0 0.0
2017-Jul-24 16:58N 51°15' E 004°23'0 0.0
2017-Jul-24 16:28N 51°15' E 004°23'0 0.0
2017-Jul-24 15:58N 51°15' E 004°23'0 0.0
2017-Jul-24 12:58N 51°15' E 004°23'0 0.0
2017-Jul-24 12:28N 51°15' E 004°23'0 0.0
2017-Jul-24 11:58N 51°15' E 004°23'0 0.0
2017-Jul-24 11:28N 51°15' E 004°23'0 0.0
2017-Jul-24 10:58N 51°15' E 004°23'0 0.0
2017-Jul-24 10:28N 51°15' E 004°23'0 0.0
2017-Jul-24 09:58N 51°15' E 004°23'0 0.0
2017-Jul-24 09:28N 51°15' E 004°23'0 0.0
2017-Jul-24 08:58N 51°15' E 004°23'0 0.0
2017-Jul-24 08:28N 51°15' E 004°23'0 0.0
2017-Jul-24 07:58N 51°15' E 004°23'0 0.0
2017-Jul-24 07:28N 51°15' E 004°23'0 0.0
2017-Jul-24 06:58N 51°15' E 004°23'0 0.0
2017-Jul-24 06:28N 51°15' E 004°23'0 0.0
2017-Jul-24 05:58N 51°15' E 004°23'0 0.0
2017-Jul-24 05:28N 51°15' E 004°23'0 0.0
2017-Jul-24 04:58N 51°15' E 004°23'0 0.0
2017-Jul-24 04:28N 51°15' E 004°23'0 0.0
2017-Jul-24 03:58N 51°15' E 004°23'0 0.0
2017-Jul-24 03:28N 51°15' E 004°23'0 0.0
2017-Jul-24 02:58N 51°15' E 004°23'0 0.0
2017-Jul-24 02:28N 51°15' E 004°23'0 0.0
2017-Jul-24 01:58N 51°15' E 004°23'0 0.0
2017-Jul-24 01:28N 51°15' E 004°23'0 0.0
2017-Jul-24 00:58N 51°15' E 004°23'0 0.0
2017-Jul-24 00:25N 51°15' E 004°23'0 0.0
2017-Jul-23 23:58N 51°15' E 004°23'0 0.0
2017-Jul-23 23:28N 51°15' E 004°23'0 0.0
2017-Jul-23 22:58N 51°15' E 004°23'0 0.0
2017-Jul-23 22:28N 51°15' E 004°23'0 0.0
2017-Jul-23 21:58N 51°15' E 004°23'0 0.0
2017-Jul-23 21:28N 51°15' E 004°23'0 0.0
2017-Jul-23 20:58N 51°15' E 004°23'0 0.0
2017-Jul-23 20:28N 51°15' E 004°23'0 0.0
2017-Jul-23 19:58N 51°15' E 004°23'0 0.0
2017-Jul-23 19:28N 51°15' E 004°23'0 0.0
2017-Jul-23 18:58N 51°15' E 004°23'0 0.0
2017-Jul-23 18:28N 51°15' E 004°23'0 0.0
2017-Jul-23 17:58N 51°15' E 004°23'0 0.0
2017-Jul-23 17:28N 51°15' E 004°23'0 0.0
2017-Jul-23 16:58N 51°15' E 004°23'0 0.0
2017-Jul-23 16:28N 51°15' E 004°23'0 0.0
2017-Jul-23 15:58N 51°15' E 004°23'0 0.0
2017-Jul-23 15:28N 51°15' E 004°23'0 0.0
2017-Jul-23 14:58N 51°15' E 004°23'0 0.0
2017-Jul-23 14:28N 51°15' E 004°23'0 0.0
2017-Jul-23 13:58N 51°15' E 004°23'0 0.0
2017-Jul-23 13:28N 51°15' E 004°23'0 0.0
2017-Jul-23 12:58N 51°15' E 004°23'0 0.0
2017-Jul-23 12:31N 51°15' E 004°23'0 0.0
2017-Jul-23 12:00N 51°15' E 004°23'0 0.0
2017-Jul-23 11:31N 51°15' E 004°23'0 0.0
2017-Jul-23 11:00N 51°15' E 004°23'0 0.0
2017-Jul-23 10:30N 51°15' E 004°23'0 0.0
2017-Jul-23 10:00N 51°15' E 004°23'0 0.0
2017-Jul-23 09:30N 51°15' E 004°23'0 0.0
2017-Jul-23 09:00N 51°15' E 004°23'0 0.0
2017-Jul-23 08:30N 51°15' E 004°23'0 0.0
2017-Jul-23 08:00N 51°15' E 004°23'0 0.0
2017-Jul-23 07:30N 51°15' E 004°23'0 0.0
2017-Jul-23 07:00N 51°15' E 004°23'0 0.0
2017-Jul-23 06:30N 51°15' E 004°23'0 0.0
2017-Jul-23 06:00N 51°15' E 004°23'0 0.0
2017-Jul-23 05:30N 51°15' E 004°23'0 0.0
2017-Jul-23 05:00N 51°15' E 004°23'0 0.0
2017-Jul-23 04:30N 51°15' E 004°23'0 0.0
2017-Jul-23 04:00N 51°15' E 004°23'0 0.0
2017-Jul-23 03:30N 51°15' E 004°23'0 0.0
2017-Jul-23 03:00N 51°15' E 004°23'0 0.0
2017-Jul-23 02:30N 51°15' E 004°23'0 0.0
2017-Jul-23 02:00N 51°15' E 004°23'0 0.0
2017-Jul-23 01:30N 51°15' E 004°23'0 0.0
2017-Jul-23 01:00N 51°15' E 004°23'0 0.1
2017-Jul-23 00:30N 51°15' E 004°23'0 0.3
2017-Jul-23 00:00N 51°15' E 004°22'0 0.0
2017-Jul-22 23:30N 51°15' E 004°22'0 0.0
2017-Jul-22 23:00N 51°15' E 004°22'0 0.0
2017-Jul-22 22:30N 51°15' E 004°22'0 0.0
2017-Jul-22 22:00N 51°15' E 004°22'0 0.0
2017-Jul-22 21:30N 51°15' E 004°22'0 0.0
2017-Jul-22 21:00N 51°15' E 004°22'0 0.0
2017-Jul-22 20:30N 51°15' E 004°22'0 0.0
2017-Jul-22 20:00N 51°15' E 004°22'0 0.0
2017-Jul-22 19:30N 51°15' E 004°22'0 0.0
2017-Jul-22 19:00N 51°15' E 004°22'0 0.0
2017-Jul-22 18:30N 51°15' E 004°22'0 0.0
2017-Jul-22 18:00N 51°15' E 004°22'0 0.0
2017-Jul-22 17:30N 51°15' E 004°22'0 0.0
2017-Jul-22 17:00N 51°15' E 004°22'0 0.0
2017-Jul-22 16:30N 51°15' E 004°22'0 0.0
2017-Jul-22 16:00N 51°15' E 004°22'0 0.0
2017-Jul-22 15:30N 51°15' E 004°22'0 0.0
2017-Jul-22 15:00N 51°15' E 004°22'0 0.0
2017-Jul-22 14:00N 51°15' E 004°22'0 0.0
2017-Jul-22 13:30N 51°15' E 004°22'0 0.0
2017-Jul-22 13:00N 51°15' E 004°22'0 0.0
2017-Jul-22 12:30N 51°15' E 004°22'0 0.0
2017-Jul-22 12:00N 51°15' E 004°22'0 0.0
2017-Jul-22 11:30N 51°15' E 004°22'0 0.0
2017-Jul-22 11:00N 51°15' E 004°22'0 0.0
2017-Jul-22 10:30N 51°15' E 004°22'0 0.0
2017-Jul-22 10:00N 51°15' E 004°22'0 0.0
2017-Jul-22 09:30N 51°15' E 004°22'0 0.0
2017-Jul-22 09:00N 51°15' E 004°22'0 0.0
2017-Jul-22 08:30N 51°15' E 004°22'0 0.0
2017-Jul-22 08:00N 51°15' E 004°22'0 0.0
2017-Jul-22 07:30N 51°15' E 004°22'0 0.0
2017-Jul-22 07:00N 51°15' E 004°22'0 0.0
2017-Jul-22 06:30N 51°15' E 004°22'0 0.0
2017-Jul-22 06:00N 51°15' E 004°22'0 0.0
2017-Jul-22 05:30N 51°15' E 004°22'0 0.0
2017-Jul-22 05:00N 51°15' E 004°22'0 0.0
2017-Jul-22 04:30N 51°15' E 004°22'0 0.0
2017-Jul-22 04:00N 51°15' E 004°22'0 0.0
2017-Jul-22 03:30N 51°15' E 004°22'0 0.0
2017-Jul-22 03:00N 51°15' E 004°22'0 0.0
2017-Jul-22 02:30N 51°15' E 004°22'0 0.0
2017-Jul-22 02:00N 51°15' E 004°22'0 0.0
2017-Jul-22 01:30N 51°15' E 004°22'0 0.0
2017-Jul-22 01:00N 51°15' E 004°22'0 0.0
2017-Jul-22 00:30N 51°15' E 004°22'0 0.0
2017-Jul-22 00:00N 51°15' E 004°22'0 0.0
2017-Jul-21 23:30N 51°15' E 004°22'0 0.0
2017-Jul-21 23:00N 51°15' E 004°22'0 0.0
2017-Jul-21 22:30N 51°15' E 004°22'0 0.0
2017-Jul-21 21:59N 51°15' E 004°22'0 0.0
2017-Jul-21 21:29N 51°15' E 004°22'0 0.0
2017-Jul-21 20:59N 51°15' E 004°22'0 0.0
2017-Jul-21 20:29N 51°15' E 004°22'0 0.0
2017-Jul-21 19:59N 51°15' E 004°22'0 0.0
2017-Jul-21 19:29N 51°15' E 004°22'0 0.0
2017-Jul-21 18:59N 51°15' E 004°22'0 0.0
2017-Jul-21 18:29N 51°15' E 004°22'0 0.0
2017-Jul-21 17:59N 51°15' E 004°22'0 0.0
2017-Jul-21 17:29N 51°15' E 004°22'0 0.0
2017-Jul-21 16:59N 51°15' E 004°22'0 0.0
2017-Jul-21 16:29N 51°15' E 004°22'0 0.0
2017-Jul-21 16:00N 51°15' E 004°22'1 2.9
2017-Jul-21 15:30N 51°16' E 004°21'1 1.5
2017-Jul-21 15:01N 51°17' E 004°20'0 0.5
2017-Jul-21 14:30N 51°17' E 004°20'2 3.5
2017-Jul-21 14:00N 51°18' E 004°17'4 7.9
2017-Jul-21 13:30N 51°21' E 004°14'4 8.1
2017-Jul-21 13:00N 51°22' E 004°08'510.5
2017-Jul-21 12:31N 51°26' E 004°01'611.4
2017-Jul-21 12:00N 51°22' E 003°54'612.7
2017-Jul-21 11:30N 51°22' E 003°44'611.7
2017-Jul-21 11:00N 51°26' E 003°37'510.1
2017-Jul-21 10:30N 51°29' E 003°30'612.8
2017-Jul-21 10:00N 51°34' E 003°25'1620.2
2017-Jul-21 09:13N 51°50' E 003°20'0 0.0
2017-Jul-21 09:00N 51°50' E 003°20'0 0.0
2017-Jul-21 08:30N 51°50' E 003°20'0 0.8
2017-Jul-21 08:00N 51°50' E 003°21'1 2.4
2017-Jul-21 07:30N 51°49' E 003°23'0 0.0
2017-Jul-21 07:00N 51°49' E 003°23'0 0.0
2017-Jul-21 06:30N 51°49' E 003°23'0 0.0
2017-Jul-21 06:00N 51°49' E 003°23'0 0.1
2017-Jul-21 03:26N 51°49' E 003°23'0 0.0
2017-Jul-21 02:52N 51°49' E 003°23'0 0.0
2017-Jul-21 02:30N 51°49' E 003°23'0 0.0
2017-Jul-21 02:00N 51°49' E 003°23'86 4.1
2017-Jul-20 05:02N 53°08' E 004°20'113.7
2017-Jul-20 04:57N 53°09' E 004°21'613.2
2017-Jul-20 04:30N 53°14' E 004°26'713.0
2017-Jul-20 03:59N 53°20' E 004°30'1811.2
2017-Jul-20 02:22N 53°32' E 004°53'412.0
2017-Jul-20 02:00N 53°34' E 004°60'11813.5
2017-Jul-19 17:13N 54°00' E 008°15'2 7.3
2017-Jul-19 16:58N 53°60' E 008°18'511.5
2017-Jul-19 16:29N 53°59' E 008°27'611.0
2017-Jul-19 15:58N 53°58' E 008°36'612.6
2017-Jul-19 15:29N 53°53' E 008°43'713.6
2017-Jul-19 15:00N 53°51' E 008°53'714.5
2017-Jul-19 14:30N 53°53' E 009°05'2 4.9
2017-Jul-19 14:00N 53°54' E 009°09'0 0.6
2017-Jul-19 13:30N 53°54' E 009°09'3 5.6
2017-Jul-19 13:00N 53°56' E 009°13'4 8.1
2017-Jul-19 12:30N 53°59' E 009°17'4 8.0
2017-Jul-19 12:00N 54°03' E 009°18'47 5.4
2017-Jul-19 03:16N 54°31' E 010°23'413.4
2017-Jul-19 03:00N 54°33' E 010°28'713.3
2017-Jul-19 02:31N 54°35' E 010°39'713.2
2017-Jul-19 02:01N 54°36' E 010°50'713.2
2017-Jul-19 01:31N 54°36' E 011°02'713.1
2017-Jul-19 01:01N 54°36' E 011°13'713.5
2017-Jul-19 00:31N 54°33' E 011°23'713.5
2017-Jul-19 00:01N 54°30' E 011°34'713.3
2017-Jul-18 23:27N 54°27' E 011°45'613.2
2017-Jul-18 23:01N 54°26' E 011°56'612.8
2017-Jul-18 22:31N 54°27' E 012°06'510.0
2017-Jul-18 22:01N 54°31' E 012°12'2213.0
2017-Jul-18 20:17N 54°47' E 012°39'2113.7
2017-Jul-18 18:43N 54°54' E 013°14'313.8
2017-Jul-18 18:28N 54°55' E 013°20'613.7
2017-Jul-18 18:00N 54°57' E 013°30'713.7
2017-Jul-18 17:30N 54°59' E 013°42'713.6
2017-Jul-18 17:00N 55°01' E 013°53'713.4
2017-Jul-18 16:30N 55°04' E 014°04'713.5
2017-Jul-18 15:59N 55°09' E 014°12'613.5
2017-Jul-18 15:30N 55°14' E 014°19'713.3
2017-Jul-18 15:00N 55°19' E 014°26'1313.1
2017-Jul-18 14:00N 55°29' E 014°42'612.7
2017-Jul-18 13:31N 55°32' E 014°52'612.6
2017-Jul-18 13:00N 55°35' E 015°02'612.9
2017-Jul-18 12:31N 55°39' E 015°11'612.8
2017-Jul-18 12:01N 55°42' E 015°21'612.9
2017-Jul-18 11:31N 55°45' E 015°31'613.0
2017-Jul-18 11:01N 55°48' E 015°41'612.9
2017-Jul-18 10:31N 55°52' E 015°51'612.9
2017-Jul-18 10:01N 55°55' E 016°01'612.4
2017-Jul-18 09:30N 55°58' E 016°10'613.0
2017-Jul-18 09:01N 56°05' E 016°11'713.0
2017-Jul-18 08:31N 56°11' E 016°12'713.3
2017-Jul-18 08:01N 56°18' E 016°14'713.5
2017-Jul-18 07:31N 56°25' E 016°15'713.4
2017-Jul-18 07:01N 56°31' E 016°18'611.9
2017-Jul-18 06:31N 56°37' E 016°21'3 5.2
2017-Jul-18 05:58N 56°39' E 016°23'0 0.0
2017-Jul-18 05:28N 56°39' E 016°23'0 0.0
2017-Jul-18 04:58N 56°39' E 016°23'0 0.0
2017-Jul-18 04:28N 56°39' E 016°23'0 0.0
2017-Jul-18 04:01N 56°39' E 016°23'0 0.0
2017-Jul-18 03:31N 56°39' E 016°23'0 0.0
2017-Jul-18 03:01N 56°39' E 016°23'0 0.0
2017-Jul-18 02:30N 56°39' E 016°23'0 0.0
2017-Jul-18 01:57N 56°39' E 016°23'0 0.0
2017-Jul-18 01:30N 56°39' E 016°23'0 0.0
2017-Jul-18 01:00N 56°39' E 016°23'0 0.0
2017-Jul-18 00:30N 56°39' E 016°23'0 0.0
2017-Jul-17 23:57N 56°39' E 016°23'0 0.0
2017-Jul-17 23:30N 56°39' E 016°23'0 0.0
2017-Jul-17 23:00N 56°39' E 016°23'0 0.0
2017-Jul-17 22:30N 56°39' E 016°23'0 0.0
2017-Jul-17 22:00N 56°39' E 016°23'0 0.0
2017-Jul-17 21:30N 56°39' E 016°23'0 0.0
2017-Jul-17 21:00N 56°39' E 016°23'0 0.0
2017-Jul-17 20:30N 56°39' E 016°23'0 0.0
2017-Jul-17 20:00N 56°39' E 016°23'0 0.0
2017-Jul-17 19:30N 56°39' E 016°23'0 0.0
2017-Jul-17 19:00N 56°39' E 016°23'0 0.0
2017-Jul-17 18:30N 56°39' E 016°23'0 0.0
2017-Jul-17 18:00N 56°39' E 016°23'0 0.0
2017-Jul-17 17:30N 56°39' E 016°23'0 0.0
2017-Jul-17 17:00N 56°39' E 016°23'0 0.0
2017-Jul-17 16:30N 56°39' E 016°23'0 0.0
2017-Jul-17 16:00N 56°39' E 016°23'0 0.0
2017-Jul-17 15:30N 56°39' E 016°23'0 0.0
2017-Jul-17 15:00N 56°39' E 016°23'0 0.0
2017-Jul-17 14:30N 56°39' E 016°23'0 0.0
2017-Jul-17 14:00N 56°39' E 016°23'0 0.0
2017-Jul-17 13:29N 56°39' E 016°23'0 0.0
2017-Jul-17 13:00N 56°39' E 016°23'0 0.0
2017-Jul-17 12:30N 56°39' E 016°23'0 0.0
2017-Jul-17 12:00N 56°39' E 016°23'0 0.0
2017-Jul-17 11:30N 56°39' E 016°23'0 0.0
2017-Jul-17 11:00N 56°39' E 016°23'0 0.0
2017-Jul-17 10:30N 56°39' E 016°23'0 0.4
2017-Jul-17 10:00N 56°40' E 016°23'3 6.7
2017-Jul-17 09:30N 56°43' E 016°26'2212.4
2017-Jul-17 07:42N 57°03' E 016°42'313.8
2017-Jul-17 07:28N 57°06' E 016°44'613.8
2017-Jul-17 07:00N 57°12' E 016°48'110 6.6
2017-Jul-16 14:31N 58°55' E 017°58'0 0.0
2017-Jul-16 14:14N 58°55' E 017°58'0 0.0
2017-Jul-16 13:56N 58°55' E 017°58'0 0.0
2017-Jul-16 13:30N 58°55' E 017°58'0 0.0
2017-Jul-16 12:56N 58°55' E 017°58'0 0.0
2017-Jul-16 12:15N 58°55' E 017°58'0 0.0
2017-Jul-16 11:58N 58°55' E 017°58'0 0.0
2017-Jul-16 11:29N 58°55' E 017°58'0 0.0
2017-Jul-16 10:56N 58°55' E 017°58'0 0.0
2017-Jul-16 10:28N 58°55' E 017°58'0 0.0
2017-Jul-16 09:55N 58°55' E 017°58'0 0.0
2017-Jul-16 09:27N 58°55' E 017°58'0 0.0
2017-Jul-16 08:59N 58°55' E 017°58'0 0.0
2017-Jul-16 08:30N 58°55' E 017°58'0 0.0
2017-Jul-16 07:55N 58°55' E 017°58'0 0.0
2017-Jul-16 07:21N 58°55' E 017°58'0 0.0
2017-Jul-16 06:57N 58°55' E 017°58'0 0.0
2017-Jul-16 06:28N 58°55' E 017°58'0 0.0
2017-Jul-16 05:55N 58°55' E 017°58'0 0.0
2017-Jul-16 05:30N 58°55' E 017°58'0 0.0
2017-Jul-16 04:48N 58°55' E 017°58'0 0.0
2017-Jul-16 04:09N 58°55' E 017°58'0 0.0
2017-Jul-16 03:57N 58°55' E 017°58'0 0.0
2017-Jul-16 03:24N 58°55' E 017°58'0 0.0
2017-Jul-16 02:58N 58°55' E 017°58'  

Dump ship's entire track history